createdAt,value
2022-10-13T00:02:46.900Z,97018.81
2022-10-13T00:07:49.990Z,97016.78
2022-10-13T00:12:52.929Z,97020.84
2022-10-13T00:17:59.558Z,97018.97
2022-10-13T00:23:03.826Z,97035.63
2022-10-13T00:28:11.541Z,97023.00
2022-10-13T00:33:14.075Z,97033.63
2022-10-13T00:38:23.387Z,96992.97
2022-10-13T00:43:32.364Z,96976.22
2022-10-13T00:48:36.594Z,96992.88
2022-10-13T00:53:44.337Z,96984.44
2022-10-13T00:58:49.381Z,96972.59
2022-10-13T01:03:54.338Z,97004.66
2022-10-13T01:08:57.093Z,97002.06
2022-10-13T01:14:21.838Z,97028.25
2022-10-13T01:19:48.613Z,97024.91
2022-10-13T01:25:36.064Z,97031.34
2022-10-13T01:30:49.149Z,97018.94
2022-10-13T01:36:50.289Z,96981.16
2022-10-13T01:42:00.259Z,97021.19
2022-10-13T01:47:04.003Z,96997.66
2022-10-13T01:52:29.170Z,96991.59
2022-10-13T01:57:41.069Z,96978.25
2022-10-13T02:03:14.636Z,97010.16
2022-10-13T02:08:35.411Z,97002.94
2022-10-13T02:13:40.414Z,97006.09
2022-10-13T02:18:46.124Z,96985.13
2022-10-13T02:23:49.833Z,96999.88
2022-10-13T02:28:57.152Z,96997.06
2022-10-13T02:34:00.468Z,96981.13
2022-10-13T02:39:03.010Z,96978.50
2022-10-13T02:44:09.896Z,96973.19
2022-10-13T02:49:20.523Z,96955.47
2022-10-13T02:54:23.174Z,96971.63
2022-10-13T02:59:27.031Z,96969.31
2022-10-13T03:04:29.974Z,96968.91
2022-10-13T03:09:37.939Z,96961.59
2022-10-13T03:14:42.574Z,96966.34
2022-10-13T03:19:45.939Z,96971.25
2022-10-13T03:24:52.644Z,96924.84
2022-10-13T03:30:02.485Z,96959.66
2022-10-13T03:35:10.288Z,96967.91
2022-10-13T03:40:13.493Z,96978.06
2022-10-13T03:45:20.217Z,96965.31
2022-10-13T03:50:23.744Z,96978.56
2022-10-13T03:55:28.509Z,96955.94
2022-10-13T04:00:36.281Z,96950.81
2022-10-13T04:05:38.973Z,96950.88
2022-10-13T04:10:42.156Z,96952.66
2022-10-13T04:15:44.344Z,96937.19
2022-10-13T04:20:46.492Z,96934.84
2022-10-13T04:25:48.693Z,96943.81
2022-10-13T04:30:50.758Z,96919.69
2022-10-13T04:35:53.110Z,96920.72
2022-10-13T04:40:55.348Z,96937.19
2022-10-13T04:46:07.675Z,96953.00
2022-10-13T04:51:13.155Z,96959.34
2022-10-13T04:56:18.029Z,96964.38
2022-10-13T05:01:22.761Z,96945.94
2022-10-13T05:06:32.879Z,96952.56
2022-10-13T05:11:35.019Z,96903.03
2022-10-13T05:16:37.766Z,96945.94
2022-10-13T05:21:40.251Z,96914.09
2022-10-13T05:26:42.519Z,96960.50
2022-10-13T05:31:44.867Z,96966.34
2022-10-13T05:36:47.123Z,96952.25
2022-10-13T05:41:49.356Z,96942.59
2022-10-13T05:46:56.362Z,96953.22
2022-10-13T05:52:04.768Z,96982.81
2022-10-13T05:57:23.522Z,96939.31
2022-10-13T06:02:31.710Z,96979.84
2022-10-13T06:07:35.222Z,96968.78
2022-10-13T06:12:37.802Z,96974.94
2022-10-13T06:17:40.000Z,96974.19
2022-10-13T06:22:42.166Z,96958.66
2022-10-13T06:27:44.497Z,96960.25
2022-10-13T06:32:50.540Z,96929.66
2022-10-13T06:37:53.458Z,96948.06
2022-10-13T06:42:55.774Z,96942.81
2022-10-13T06:47:58.092Z,96911.94
2022-10-13T06:53:00.472Z,96924.41
2022-10-13T06:58:02.968Z,96943.59
2022-10-13T07:03:05.121Z,96916.78
2022-10-13T07:08:07.247Z,96911.38
2022-10-13T07:13:10.031Z,96921.47
2022-10-13T07:18:12.602Z,96880.53
2022-10-13T07:23:15.001Z,96861.16
2022-10-13T07:28:17.481Z,96911.16
2022-10-13T07:33:20.827Z,96859.88
2022-10-13T07:38:23.089Z,96857.97
2022-10-13T07:43:28.745Z,96904.22
2022-10-13T07:53:54.077Z,96826.09
2022-10-13T07:59:04.553Z,96888.53
2022-10-13T08:09:27.965Z,96823.63
2022-10-13T08:31:52.473Z,96870.53
2022-10-13T08:36:56.879Z,96867.66
2022-10-13T08:42:04.440Z,96859.13
2022-10-13T08:47:46.567Z,96849.03
2022-10-13T08:53:43.744Z,96854.22
2022-10-13T08:59:48.654Z,96837.72
2022-10-13T09:04:57.162Z,96818.56
2022-10-13T09:11:08.800Z,96828.50
2022-10-13T09:16:27.208Z,96788.97
2022-10-13T09:21:30.499Z,96800.66
2022-10-13T09:26:42.059Z,96828.56
2022-10-13T09:31:44.656Z,96822.94
2022-10-13T09:37:16.925Z,96798.94
2022-10-13T09:42:30.637Z,96814.16
2022-10-13T09:47:36.687Z,96828.03
2022-10-13T09:52:39.310Z,96788.56
2022-10-13T09:57:51.823Z,96783.50
2022-10-13T10:03:12.661Z,96808.88
2022-10-13T10:08:33.530Z,96812.53
2022-10-13T10:13:47.079Z,96782.00
2022-10-13T10:18:58.939Z,96765.31
2022-10-13T10:24:20.509Z,96791.91
2022-10-13T10:29:37.322Z,96782.72
2022-10-13T10:35:17.474Z,96761.88
2022-10-13T10:40:47.793Z,96750.28
2022-10-13T10:45:50.172Z,96768.28
2022-10-13T10:50:53.468Z,96709.00
2022-10-13T10:56:09.824Z,96755.31
2022-10-13T11:01:12.200Z,96748.91
2022-10-13T11:06:18.089Z,96750.78
2022-10-13T11:11:24.747Z,96730.66
2022-10-13T11:16:38.511Z,96740.72
2022-10-13T11:21:54.458Z,96736.94
2022-10-13T11:27:17.118Z,96712.16
2022-10-13T11:32:37.982Z,96712.00
2022-10-13T11:38:07.789Z,96711.81
2022-10-13T11:43:13.071Z,96718.44
2022-10-13T11:48:31.620Z,96716.06
2022-10-13T11:54:02.199Z,96675.69
2022-10-13T11:59:05.161Z,96636.94
2022-10-13T12:04:16.075Z,96702.88
2022-10-13T12:09:21.101Z,96668.69
2022-10-13T12:19:41.001Z,96637.72
2022-10-13T12:25:33.108Z,96648.78
2022-10-13T12:37:19.679Z,96626.63
2022-10-13T12:49:04.130Z,96616.69
2022-10-13T12:54:27.430Z,96673.50
2022-10-13T12:59:31.816Z,96624.53
2022-10-13T13:04:37.247Z,96661.19
2022-10-13T13:09:41.399Z,96632.38
2022-10-13T13:14:55.156Z,96669.94
2022-10-13T13:19:58.615Z,96667.25
2022-10-13T13:25:00.920Z,96609.81
2022-10-13T13:30:03.507Z,96616.53
2022-10-13T13:35:07.088Z,96665.13
2022-10-13T13:40:22.978Z,96628.72
2022-10-13T13:45:25.774Z,96610.22
2022-10-13T13:50:34.753Z,96601.06
2022-10-13T13:55:38.291Z,96604.75
2022-10-13T14:51:59.029Z,96638.78
2022-10-13T14:57:05.627Z,96636.13
2022-10-13T15:02:10.258Z,96619.41
2022-10-13T15:07:47.344Z,96676.66
2022-10-13T15:12:52.672Z,96618.16
2022-10-13T15:17:55.425Z,96599.50
2022-10-13T15:23:09.420Z,96685.88
2022-10-13T15:28:21.365Z,96673.75
2022-10-13T15:33:28.578Z,96684.56
2022-10-13T15:38:31.951Z,96658.41
2022-10-13T15:43:34.996Z,96681.88
2022-10-13T15:48:37.123Z,96692.53
2022-10-13T15:53:39.492Z,96709.91
2022-10-13T15:58:53.465Z,96713.84
2022-10-13T16:03:57.060Z,96717.66
2022-10-13T16:38:25.983Z,96734.78
2022-10-13T17:37:07.243Z,96657.84
2022-10-13T17:49:00.992Z,96693.16
2022-10-13T18:00:03.513Z,96754.22
2022-10-13T18:18:32.575Z,96655.53
2022-10-13T18:24:02.514Z,96735.63
2022-10-13T18:30:10.044Z,96647.19
2022-10-13T18:35:44.105Z,96654.63
2022-10-13T18:40:55.316Z,96648.19
2022-10-13T18:46:04.616Z,96695.63
2022-10-13T19:10:11.267Z,96735.00
2022-10-13T19:22:39.183Z,96748.13
2022-10-13T19:28:44.937Z,96766.28
2022-10-13T19:33:50.858Z,96685.63
2022-10-13T19:44:35.859Z,96703.91
2022-10-13T19:49:38.510Z,96731.25
2022-10-13T19:54:40.873Z,96727.41
2022-10-13T19:59:47.422Z,96704.91
2022-10-13T23:13:04.028Z,96580.34
2022-10-13T23:23:44.477Z,96621.09
2022-10-13T23:28:52.836Z,96607.19
2022-10-13T23:33:59.111Z,96598.06
2022-10-13T23:39:13.147Z,96578.50
2022-10-13T23:44:39.036Z,96629.97
2022-10-13T23:49:48.592Z,96647.44
2022-10-13T23:55:01.082Z,96597.28
